createdAt,value
2023-02-12T00:30:33.019Z,39.6
2023-02-12T00:45:35.701Z,39.2
2023-02-12T01:00:36.113Z,40
2023-02-12T01:30:27.627Z,40
2023-02-12T01:30:33.641Z,39
2023-02-12T01:45:36.005Z,39.3
2023-02-12T02:00:36.562Z,40
2023-02-12T02:15:37.408Z,40
2023-02-12T02:30:45.029Z,40
2023-02-12T02:30:51.310Z,39.3
2023-02-12T02:45:53.727Z,40
2023-02-12T03:00:54.527Z,40
2023-02-12T03:15:56.578Z,39.3
2023-02-12T03:30:55.273Z,40
2023-02-12T03:31:01.537Z,40.2
2023-02-12T03:46:04.153Z,39.8
2023-02-12T04:01:05.319Z,39.2
2023-02-12T04:16:06.395Z,39.3
2023-02-12T04:30:56.174Z,39.7
2023-02-12T04:31:02.845Z,39.8
2023-02-12T05:31:11.279Z,39.6
2023-02-12T05:46:13.551Z,39.1
2023-02-12T06:01:16.684Z,39.4
2023-02-12T06:16:15.191Z,40
2023-02-12T06:31:26.512Z,39.8
2023-02-12T06:31:33.359Z,39.6
2023-02-12T06:46:35.507Z,40.2
2023-02-12T07:01:36.611Z,40.1
2023-02-12T07:16:37.430Z,39.5
2023-02-12T07:31:30.456Z,40.3
2023-02-12T09:31:51.424Z,39.9
2023-02-12T09:46:52.687Z,40.1
2023-02-12T10:01:53.531Z,39.9
2023-02-12T11:32:16.778Z,40.2
2023-02-12T11:32:22.804Z,40.6
2023-02-12T11:47:25.558Z,40.4
2023-02-12T12:02:26.884Z,40.6
2023-02-12T12:32:27.106Z,41.4
2023-02-12T12:32:33.346Z,41.2
2023-02-12T12:47:35.634Z,41.2
2023-02-12T13:02:36.545Z,40.5
2023-02-12T13:32:32.417Z,41
2023-02-12T13:47:34.501Z,40.5
2023-02-12T14:02:35.601Z,41
2023-02-12T14:17:36.817Z,41.4
2023-02-12T14:32:41.896Z,41
2023-02-12T14:47:43.966Z,40.7
2023-02-12T15:02:44.238Z,40.6
2023-02-12T15:17:45.472Z,41.1
2023-02-12T15:32:52.723Z,40.9
2023-02-12T15:47:54.546Z,40.7
2023-02-12T17:33:25.943Z,40.2
2023-02-12T17:48:28.848Z,39.8
2023-02-12T18:03:29.022Z,40.3
2023-02-12T18:33:23.435Z,39.9
2023-02-12T18:48:25.052Z,39.8
2023-02-12T19:18:27.346Z,39.9
2023-02-12T19:33:32.536Z,40.3
2023-02-12T19:48:34.757Z,40.3
2023-02-12T20:33:43.963Z,40
2023-02-12T20:48:45.760Z,39.5
2023-02-12T21:03:46.385Z,40.3
2023-02-12T21:18:47.168Z,40
2023-02-12T22:34:08.300Z,40.3
2023-02-12T22:34:14.384Z,40.5
2023-02-12T22:49:17.681Z,39.9
2023-02-12T23:04:19.129Z,40.2
2023-02-12T23:19:19.318Z,39.8
2023-02-12T23:34:09.000Z,40.3
2023-02-12T23:34:15.138Z,40
2023-02-12T23:49:16.945Z,39.9
